首页
METAR-TAF:

METAR-TAF

机场 :

埃因霍温, 荷兰

纬度: 51-27N, 经度: 005-25E, 海拔: 23米

当前天气观测

该预报发布于18分钟前的02:55 UTC
风速6节,风向东转东北
温度 13°C
湿度 67%
气压 1022 hPa
能见度10公里或以上
阴天层高于32000英尺

METAR: EHEH 010255Z AUTO 06006KT 9999 OVC320 13/07 Q1022 BLU

时间: 05:13 (03:13 UTC)

预报

该预报发布于3小时和58分钟前的23:15 UTC
预报有效从01日的 00点(UTC)到 02日的 06点(UTC)
风速5节,风向东北
能见度10公里或以上
1500米以下无云,无积雨云
短暂存在
从 01日的 08点(UTC)到 01日的 18点(UTC)
风速8节,风向东转东北,有时为18节阵风
成为
从 02日的 03点(UTC)到 02日的 06点(UTC)
风速3节,风向多变

TAF: EHEH 312315Z 0100/0206 05005KT CAVOK TEMPO 0108/0118 06008G18KT BECMG 0203/0206 VRB03KT

超过4000个机场的气象观测和天气预报(METAR&TAF报告)。

可查询的气象台以黄色和红色小点在地图上表示。

将鼠标移到小点上方,可查看气象台名称。

然后点击查看天气观测和预报。

如需切换地图:点击带黑十字的绿色按钮放大地图;点击带横线的绿色按钮缩小地图;或者点击绿色箭头查看邻近地区的地图。


METAR-TAF: